Main page
Satellite images 15-day forecastsClimateMarine weather Cyclones Lightning AirportsFAQ Newsletter About
Weather : Europe Africa North America South America Asia Australia-Oceania Others
Languages Contact

Waddington, England

RAF

latitude: 53-10N, longitude: 000-31W, elevation: 68 m


METAR: EGXW 230550Z 21011KT 9999 BKN035 11/08 Q1017 BLU
TAF: missing

Time: 07:35 (06:35 UTC)

Current weather observation

The report was made 45 minutes ago, at 05:50 UTC
Wind 11 kt from the South/Southwest
Temperature 11°C
Humidity 82%
Pressure 1017 hPa
Visibility 10 km or more
Broken clouds at a height of 3500 ft

Change units
The information on this site is subject to a disclaimer
Weather : Europe Africa North America South America Asia Australia-Oceania Others
Satellite images 15-day forecastsClimateMarine weather Cyclones Lightning AirportsFAQ Languages Contact Newsletter About